createdAt,value
2019-04-29T00:00:35.017Z,1017.90
2019-04-29T00:01:34.802Z,1017.88
2019-04-29T00:02:34.802Z,1017.89
2019-04-29T00:03:34.795Z,1017.89
2019-04-29T00:04:34.993Z,1017.91
2019-04-29T00:05:34.795Z,1017.94
2019-04-29T00:06:34.969Z,1017.95
2019-04-29T00:07:34.776Z,1017.95
2019-04-29T00:08:34.782Z,1017.93
2019-04-29T00:09:34.766Z,1017.96
2019-04-29T00:10:34.744Z,1017.97
2019-04-29T00:11:34.744Z,1017.98
2019-04-29T00:12:34.748Z,1017.98
2019-04-29T00:13:34.736Z,1017.97
2019-04-29T00:14:34.733Z,1017.98
2019-04-29T00:15:34.715Z,1017.99
2019-04-29T00:16:34.918Z,1018.01
2019-04-29T00:17:34.716Z,1018.02
2019-04-29T00:18:34.719Z,1018.04
2019-04-29T00:19:36.278Z,1018.00
2019-04-29T00:20:34.894Z,1018.00
2019-04-29T00:21:34.681Z,1018.01
2019-04-29T00:22:34.680Z,1018.00
2019-04-29T00:23:34.667Z,1018.01
2019-04-29T00:24:34.661Z,1018.01
2019-04-29T00:25:34.665Z,1018.02
2019-04-29T00:26:34.648Z,1017.99
2019-04-29T00:27:34.651Z,1018.02
2019-04-29T00:28:34.633Z,1018.03
2019-04-29T00:29:34.621Z,1018.06
2019-04-29T00:30:34.629Z,1018.05
2019-04-29T00:31:34.624Z,1018.08
2019-04-29T00:32:34.622Z,1018.05
2019-04-29T00:33:34.599Z,1018.08
2019-04-29T00:34:34.608Z,1018.09
2019-04-29T00:35:34.596Z,1018.08
2019-04-29T00:36:34.592Z,1018.08
2019-04-29T00:37:34.590Z,1018.11
2019-04-29T00:38:34.773Z,1018.11
2019-04-29T00:39:34.565Z,1018.11
2019-04-29T00:40:34.557Z,1018.07
2019-04-29T00:41:34.549Z,1018.12
2019-04-29T00:42:34.756Z,1018.12
2019-04-29T00:43:34.544Z,1018.11
2019-04-29T00:44:34.738Z,1018.11
2019-04-29T00:45:34.730Z,1018.11
2019-04-29T00:46:34.521Z,1018.12
2019-04-29T00:47:34.514Z,1018.11
2019-04-29T00:48:34.507Z,1018.10
2019-04-29T00:49:34.499Z,1018.12
2019-04-29T00:50:34.695Z,1018.11
2019-04-29T00:51:34.538Z,1018.11
2019-04-29T00:52:34.687Z,1018.13
2019-04-29T00:53:34.485Z,1018.11
2019-04-29T00:54:34.685Z,1018.09
2019-04-29T00:55:34.456Z,1018.10
2019-04-29T00:56:34.449Z,1018.14
2019-04-29T00:57:34.652Z,1018.17
2019-04-29T00:58:34.442Z,1018.14
2019-04-29T00:59:34.435Z,1018.15
2019-04-29T01:00:34.434Z,1018.17
2019-04-29T01:01:34.416Z,1018.16
2019-04-29T01:02:34.414Z,1018.14
2019-04-29T01:03:34.425Z,1018.18
2019-04-29T01:04:34.396Z,1018.17
2019-04-29T01:05:34.394Z,1018.17
2019-04-29T01:06:34.393Z,1018.17
2019-04-29T01:07:34.379Z,1018.18
2019-04-29T01:08:34.373Z,1018.18
2019-04-29T01:09:34.364Z,1018.18
2019-04-29T01:10:34.381Z,1018.19
2019-04-29T01:11:34.357Z,1018.16
2019-04-29T01:12:34.349Z,1018.19
2019-04-29T01:13:34.354Z,1018.16
2019-04-29T01:14:34.332Z,1018.15
2019-04-29T01:15:34.325Z,1018.14
2019-04-29T01:16:34.318Z,1018.16
2019-04-29T01:17:34.321Z,1018.17
2019-04-29T01:18:34.317Z,1018.17
2019-04-29T01:19:34.513Z,1018.14
2019-04-29T01:20:34.505Z,1018.19
2019-04-29T01:21:34.292Z,1018.19
2019-04-29T01:22:34.298Z,1018.15
2019-04-29T01:23:34.278Z,1018.18
2019-04-29T01:24:34.266Z,1018.17
2019-04-29T01:25:34.259Z,1018.19
2019-04-29T01:26:34.270Z,1018.17
2019-04-29T01:27:34.247Z,1018.19
2019-04-29T01:28:34.237Z,1018.20
2019-04-29T01:29:34.447Z,1018.23
2019-04-29T01:30:34.233Z,1018.19
2019-04-29T01:31:34.219Z,1018.20
2019-04-29T01:32:34.425Z,1018.19
2019-04-29T01:33:34.216Z,1018.19
2019-04-29T01:34:34.199Z,1018.22
2019-04-29T01:35:34.209Z,1018.24
2019-04-29T01:36:34.395Z,1018.25
2019-04-29T01:37:34.186Z,1018.26
2019-04-29T01:38:34.176Z,1018.27
2019-04-29T01:39:34.173Z,1018.26
2019-04-29T01:40:34.166Z,1018.30
2019-04-29T01:41:34.158Z,1018.29
2019-04-29T01:42:34.360Z,1018.32
2019-04-29T01:43:34.140Z,1018.36
2019-04-29T01:44:34.339Z,1018.31
2019-04-29T01:45:34.334Z,1018.34
2019-04-29T01:46:34.143Z,1018.35
2019-04-29T01:47:34.114Z,1018.32
2019-04-29T01:48:34.109Z,1018.31
2019-04-29T01:49:34.104Z,1018.29
2019-04-29T01:50:34.302Z,1018.30
2019-04-29T01:51:34.088Z,1018.29
2019-04-29T01:52:34.084Z,1018.30
2019-04-29T01:53:34.090Z,1018.31
2019-04-29T01:54:34.084Z,1018.30
2019-04-29T01:55:34.063Z,1018.29
2019-04-29T01:56:34.058Z,1018.30
2019-04-29T01:57:34.259Z,1018.33
2019-04-29T01:58:34.045Z,1018.32
2019-04-29T01:59:34.044Z,1018.25
2019-04-29T02:00:34.235Z,1018.31
2019-04-29T02:01:34.230Z,1018.32
2019-04-29T02:02:34.222Z,1018.36
2019-04-29T02:03:34.006Z,1018.33
2019-04-29T02:04:34.001Z,1018.36
2019-04-29T02:05:34.074Z,1018.35
2019-04-29T02:06:33.991Z,1018.34
2019-04-29T02:07:33.999Z,1018.39
2019-04-29T02:08:33.981Z,1018.38
2019-04-29T02:09:34.186Z,1018.38
2019-04-29T02:10:34.181Z,1018.40
2019-04-29T02:11:34.158Z,1018.40
2019-04-29T02:12:33.967Z,1018.39
2019-04-29T02:13:33.945Z,1018.43
2019-04-29T02:14:33.943Z,1018.39
2019-04-29T02:15:33.930Z,1018.41
2019-04-29T02:16:33.921Z,1018.42
2019-04-29T02:17:33.914Z,1018.47
2019-04-29T02:18:34.110Z,1018.48
2019-04-29T02:19:34.112Z,1018.47
2019-04-29T02:20:33.890Z,1018.44
2019-04-29T02:21:33.886Z,1018.45
2019-04-29T02:22:33.911Z,1018.46
2019-04-29T02:23:33.875Z,1018.41
2019-04-29T02:24:33.873Z,1018.43
2019-04-29T02:25:33.869Z,1018.41
2019-04-29T02:26:33.855Z,1018.45
2019-04-29T02:27:33.881Z,1018.41
2019-04-29T02:28:33.863Z,1018.43
2019-04-29T02:29:33.845Z,1018.47
2019-04-29T02:30:33.828Z,1018.42
2019-04-29T02:31:33.823Z,1018.44
2019-04-29T02:32:33.835Z,1018.44
2019-04-29T02:33:33.808Z,1018.46
2019-04-29T02:34:33.796Z,1018.40
2019-04-29T02:35:33.805Z,1018.46
2019-04-29T02:36:33.796Z,1018.43
2019-04-29T02:37:33.777Z,1018.44
2019-04-29T02:38:33.779Z,1018.46
2019-04-29T02:39:33.776Z,1018.51
2019-04-29T02:40:33.769Z,1018.46
2019-04-29T02:41:33.756Z,1018.46
2019-04-29T02:42:33.755Z,1018.47
2019-04-29T02:43:33.743Z,1018.46
2019-04-29T02:44:33.730Z,1018.48
2019-04-29T02:45:33.738Z,1018.48
2019-04-29T02:46:33.723Z,1018.51
2019-04-29T02:47:33.711Z,1018.48
2019-04-29T02:48:34.737Z,1018.49
2019-04-29T02:49:33.711Z,1018.45
2019-04-29T02:50:33.687Z,1018.43
2019-04-29T02:51:33.693Z,1018.43
2019-04-29T02:52:33.678Z,1018.41
2019-04-29T02:53:33.886Z,1018.47
2019-04-29T02:54:33.874Z,1018.47
2019-04-29T02:55:33.670Z,1018.44
2019-04-29T02:56:33.860Z,1018.42
2019-04-29T02:57:33.647Z,1018.44
2019-04-29T02:58:33.643Z,1018.42
2019-04-29T02:59:33.856Z,1018.37
2019-04-29T03:00:33.827Z,1018.39
2019-04-29T03:01:33.614Z,1018.36
2019-04-29T03:02:33.608Z,1018.38
2019-04-29T03:03:33.604Z,1018.41
2019-04-29T03:04:33.603Z,1018.42
2019-04-29T03:05:33.601Z,1018.42
2019-04-29T03:06:33.786Z,1018.45
2019-04-29T03:07:33.572Z,1018.43
2019-04-29T03:08:33.577Z,1018.43
2019-04-29T03:09:33.762Z,1018.42
2019-04-29T03:10:33.563Z,1018.41
2019-04-29T03:11:33.547Z,1018.39
2019-04-29T03:12:33.534Z,1018.41
2019-04-29T03:13:33.530Z,1018.37
2019-04-29T03:14:33.531Z,1018.35
2019-04-29T03:15:33.540Z,1018.37
2019-04-29T03:16:33.513Z,1018.33
2019-04-29T03:17:33.523Z,1018.35
2019-04-29T03:18:33.496Z,1018.35
2019-04-29T03:19:33.496Z,1018.36
2019-04-29T03:20:33.491Z,1018.35
2019-04-29T03:21:33.783Z,1018.36
2019-04-29T03:22:33.465Z,1018.38
2019-04-29T03:23:33.680Z,1018.36
2019-04-29T03:24:33.664Z,1018.39
2019-04-29T03:25:33.451Z,1018.37
2019-04-29T03:26:33.442Z,1018.39
2019-04-29T03:27:33.656Z,1018.40
2019-04-29T03:28:33.446Z,1018.44
2019-04-29T03:29:33.419Z,1018.45
2019-04-29T03:30:33.411Z,1018.46
2019-04-29T03:31:39.076Z,1018.46
2019-04-29T03:32:33.401Z,1018.46
2019-04-29T03:33:33.389Z,1018.50
2019-04-29T03:34:33.399Z,1018.48
2019-04-29T03:35:33.379Z,1018.49
2019-04-29T03:36:33.367Z,1018.50
2019-04-29T03:37:33.360Z,1018.52
2019-04-29T03:38:33.357Z,1018.50
2019-04-29T03:39:33.347Z,1018.52
2019-04-29T03:40:33.355Z,1018.50
2019-04-29T03:41:33.336Z,1018.55
2019-04-29T03:42:33.338Z,1018.55
2019-04-29T03:43:33.319Z,1018.57
2019-04-29T03:44:33.357Z,1018.57
2019-04-29T03:45:33.308Z,1018.60
2019-04-29T03:46:33.519Z,1018.61
2019-04-29T03:47:33.312Z,1018.60
2019-04-29T03:48:33.350Z,1018.61
2019-04-29T03:49:33.278Z,1018.62
2019-04-29T03:50:33.272Z,1018.61
2019-04-29T03:51:33.274Z,1018.63
2019-04-29T03:52:33.262Z,1018.65
2019-04-29T03:53:33.269Z,1018.62
2019-04-29T03:54:33.248Z,1018.63
2019-04-29T03:55:39.691Z,1018.65
2019-04-29T03:56:33.247Z,1018.62
2019-04-29T03:57:33.220Z,1018.65
2019-04-29T03:58:33.231Z,1018.68
2019-04-29T03:59:33.209Z,1018.68
2019-04-29T04:00:33.209Z,1018.69
2019-04-29T04:01:33.198Z,1018.69
2019-04-29T04:02:33.192Z,1018.75
2019-04-29T04:03:33.179Z,1018.77
2019-04-29T04:04:33.181Z,1018.76
2019-04-29T04:05:33.237Z,1018.68
2019-04-29T04:06:33.162Z,1018.71
2019-04-29T04:07:33.169Z,1018.71
2019-04-29T04:08:33.155Z,1018.71
2019-04-29T04:09:33.150Z,1018.72
2019-04-29T04:10:33.162Z,1018.74
2019-04-29T04:11:33.163Z,1018.68
2019-04-29T04:12:33.133Z,1018.69
2019-04-29T04:13:33.320Z,1018.72
2019-04-29T04:14:33.335Z,1018.73
2019-04-29T04:15:33.128Z,1018.71
2019-04-29T04:16:33.092Z,1018.72
2019-04-29T04:17:33.287Z,1018.75
2019-04-29T04:18:33.086Z,1018.73
2019-04-29T04:19:33.069Z,1018.74
2019-04-29T04:20:33.073Z,1018.70
2019-04-29T04:21:33.257Z,1018.74
2019-04-29T04:22:33.069Z,1018.73
2019-04-29T04:23:33.037Z,1018.71
2019-04-29T04:24:33.030Z,1018.71
2019-04-29T04:25:33.231Z,1018.70
2019-04-29T04:26:33.051Z,1018.71
2019-04-29T04:27:33.006Z,1018.70
2019-04-29T04:28:33.004Z,1018.72
2019-04-29T04:29:33.096Z,1018.73
2019-04-29T04:30:32.997Z,1018.67
2019-04-29T04:31:32.984Z,1018.70
2019-04-29T04:32:32.978Z,1018.75
2019-04-29T04:33:32.973Z,1018.71
2019-04-29T04:34:32.964Z,1018.75
2019-04-29T04:35:32.954Z,1018.76
2019-04-29T04:36:33.144Z,1018.81
2019-04-29T04:37:32.942Z,1018.79
2019-04-29T04:38:32.932Z,1018.84
2019-04-29T04:39:32.926Z,1018.79
2019-04-29T04:40:33.119Z,1018.83
2019-04-29T04:41:32.930Z,1018.82
2019-04-29T04:42:33.126Z,1018.83
2019-04-29T04:43:32.892Z,1018.88
2019-04-29T04:44:32.888Z,1018.90
2019-04-29T04:45:33.084Z,1018.88
2019-04-29T04:46:32.889Z,1018.90
2019-04-29T04:47:32.866Z,1018.93
2019-04-29T04:48:32.860Z,1018.88
2019-04-29T04:49:32.847Z,1018.86
2019-04-29T04:50:32.851Z,1018.85
2019-04-29T04:51:32.840Z,1018.88
2019-04-29T04:52:32.833Z,1018.84
2019-04-29T04:53:32.832Z,1018.87
2019-04-29T04:54:32.820Z,1018.87
2019-04-29T04:55:32.816Z,1018.94
2019-04-29T04:56:33.003Z,1018.93
2019-04-29T04:57:32.800Z,1018.96
2019-04-29T04:58:33.009Z,1018.94
2019-04-29T04:59:32.782Z,1018.98
2019-04-29T05:00:32.777Z,1019.00
2019-04-29T05:01:32.764Z,1018.99
2019-04-29T05:02:32.966Z,1019.02
2019-04-29T05:03:32.755Z,1019.05
2019-04-29T05:04:32.768Z,1019.02
2019-04-29T05:05:32.743Z,1019.06
2019-04-29T05:06:32.730Z,1019.02
2019-04-29T05:07:32.935Z,1019.11
2019-04-29T05:08:32.726Z,1019.08
2019-04-29T05:09:32.713Z,1019.11
2019-04-29T05:10:32.732Z,1019.10
2019-04-29T05:11:32.717Z,1019.06
2019-04-29T05:12:32.692Z,1019.06
2019-04-29T05:13:32.681Z,1019.12
2019-04-29T05:14:32.679Z,1019.11
2019-04-29T05:15:32.668Z,1019.13
2019-04-29T05:16:32.670Z,1019.14
2019-04-29T05:17:32.659Z,1019.14
2019-04-29T05:18:32.667Z,1019.13
2019-04-29T05:19:32.648Z,1019.12
2019-04-29T05:20:32.635Z,1019.16
2019-04-29T05:21:32.630Z,1019.16
2019-04-29T05:22:32.824Z,1019.15
2019-04-29T05:23:32.621Z,1019.13
2019-04-29T05:24:32.607Z,1019.17
2019-04-29T05:25:32.610Z,1019.17
2019-04-29T05:26:32.595Z,1019.17
2019-04-29T05:27:32.619Z,1019.22
2019-04-29T05:28:32.605Z,1019.17
2019-04-29T05:29:32.578Z,1019.21
2019-04-29T05:30:32.568Z,1019.24
2019-04-29T05:31:32.782Z,1019.25
2019-04-29T05:32:32.762Z,1019.28
2019-04-29T05:33:32.570Z,1019.23
2019-04-29T05:34:32.538Z,1019.24
2019-04-29T05:35:32.553Z,1019.25
2019-04-29T05:36:34.043Z,1019.28
2019-04-29T05:37:32.518Z,1019.26
2019-04-29T05:38:32.515Z,1019.26
2019-04-29T05:39:32.513Z,1019.27
2019-04-29T05:40:32.522Z,1019.31
2019-04-29T05:41:34.887Z,1019.31
2019-04-29T05:42:32.754Z,1019.32
2019-04-29T05:43:33.711Z,1019.31
2019-04-29T05:44:32.699Z,1019.34
2019-04-29T05:45:32.680Z,1019.34
2019-04-29T05:46:32.460Z,1019.35
2019-04-29T05:47:32.484Z,1019.39
2019-04-29T05:48:33.268Z,1019.36
2019-04-29T05:49:32.645Z,1019.40
2019-04-29T05:50:32.437Z,1019.39
2019-04-29T05:51:32.441Z,1019.45
2019-04-29T05:52:34.703Z,1019.49
2019-04-29T05:53:32.449Z,1019.49
2019-04-29T05:54:33.515Z,1019.51
2019-04-29T05:55:32.406Z,1019.50
2019-04-29T05:56:32.421Z,1019.50
2019-04-29T05:57:32.602Z,1019.51
2019-04-29T05:58:32.826Z,1019.53
2019-04-29T05:59:32.403Z,1019.53
2019-04-29T06:00:32.377Z,1019.54
2019-04-29T06:01:32.377Z,1019.56
2019-04-29T06:02:35.128Z,1019.56
2019-04-29T06:03:33.453Z,1019.58
2019-04-29T06:04:32.374Z,1019.60
2019-04-29T06:05:32.338Z,1019.66
2019-04-29T06:06:32.342Z,1019.69
2019-04-29T06:07:32.325Z,1019.64
2019-04-29T06:08:34.463Z,1019.64
2019-04-29T06:09:32.309Z,1019.66
2019-04-29T06:10:32.321Z,1019.66
2019-04-29T06:11:32.515Z,1019.68
2019-04-29T06:12:32.494Z,1019.67
2019-04-29T06:13:32.506Z,1019.75
2019-04-29T06:14:32.489Z,1019.73
2019-04-29T06:15:32.492Z,1019.76
2019-04-29T06:16:32.272Z,1019.73
2019-04-29T06:17:32.267Z,1019.74
2019-04-29T06:18:32.251Z,1019.74
2019-04-29T06:19:35.241Z,1019.72
2019-04-29T06:20:32.250Z,1019.74
2019-04-29T06:21:32.245Z,1019.77
2019-04-29T06:22:32.231Z,1019.77
2019-04-29T06:23:32.240Z,1019.83
2019-04-29T06:24:32.235Z,1019.80
2019-04-29T06:25:32.226Z,1019.84
2019-04-29T06:26:32.222Z,1019.81
2019-04-29T06:27:33.431Z,1019.84
2019-04-29T06:28:32.198Z,1019.83
2019-04-29T06:29:32.194Z,1019.86
2019-04-29T06:30:32.191Z,1019.82
2019-04-29T06:31:32.183Z,1019.77
2019-04-29T06:32:32.186Z,1019.78
2019-04-29T06:33:32.180Z,1019.78
2019-04-29T06:34:35.592Z,1019.78
2019-04-29T06:35:32.157Z,1019.80
2019-04-29T06:36:32.157Z,1019.78
2019-04-29T06:37:32.137Z,1019.79
2019-04-29T06:38:32.139Z,1019.84
2019-04-29T06:39:32.135Z,1019.81
2019-04-29T06:40:35.365Z,1019.85
2019-04-29T06:41:32.114Z,1019.85
2019-04-29T06:42:33.523Z,1019.92
2019-04-29T06:43:32.108Z,1019.86
2019-04-29T06:44:32.099Z,1019.91
2019-04-29T06:46:05.504Z,1019.91
2019-04-29T06:46:32.114Z,1019.96
2019-04-29T06:47:32.094Z,1019.98
2019-04-29T06:48:32.095Z,1019.97
2019-04-29T06:49:32.070Z,1020.01
2019-04-29T06:50:32.064Z,1020.08
2019-04-29T06:51:32.059Z,1020.06
2019-04-29T06:52:32.093Z,1020.04
2019-04-29T06:53:32.054Z,1020.00
2019-04-29T06:54:32.050Z,1020.03
2019-04-29T06:55:32.267Z,1020.02
2019-04-29T06:56:32.042Z,1020.06
2019-04-29T06:57:32.041Z,1020.00
2019-04-29T06:58:32.490Z,1020.03
2019-04-29T06:59:32.013Z,1020.05
2019-04-29T07:00:32.028Z,1020.01
2019-04-29T07:01:33.079Z,1020.00
2019-04-29T07:02:32.002Z,1020.04
2019-04-29T07:03:32.020Z,1020.06
2019-04-29T07:04:38.433Z,1020.05
2019-04-29T07:05:31.988Z,1020.09
2019-04-29T07:06:31.979Z,1020.11
2019-04-29T07:07:31.971Z,1020.08
2019-04-29T07:08:31.964Z,1020.02
2019-04-29T07:09:31.960Z,1020.01
2019-04-29T07:10:31.952Z,1020.09
2019-04-29T07:11:36.377Z,1020.06
2019-04-29T07:12:31.962Z,1020.08
2019-04-29T07:13:31.942Z,1020.08
2019-04-29T07:14:33.278Z,1020.07
2019-04-29T07:15:31.935Z,1020.02
2019-04-29T07:16:32.204Z,1020.06
2019-04-29T07:17:31.930Z,1020.10
2019-04-29T07:18:31.914Z,1020.23
2019-04-29T07:19:31.933Z,1020.30
2019-04-29T07:20:32.462Z,1020.41
2019-04-29T07:21:31.902Z,1020.33
2019-04-29T07:22:31.895Z,1020.31
2019-04-29T07:23:31.910Z,1020.29
2019-04-29T07:24:32.101Z,1020.29
2019-04-29T07:25:32.106Z,1020.31
2019-04-29T07:26:31.880Z,1020.28
2019-04-29T07:27:34.865Z,1020.25
2019-04-29T07:28:31.877Z,1020.20
2019-04-29T07:29:32.935Z,1020.19
2019-04-29T07:30:31.874Z,1020.17
2019-04-29T07:31:33.492Z,1020.19
2019-04-29T07:32:32.419Z,1020.16
2019-04-29T07:33:31.842Z,1020.12
2019-04-29T07:34:33.811Z,1020.13
2019-04-29T07:35:31.865Z,1020.09
2019-04-29T07:36:31.831Z,1020.10
2019-04-29T07:37:34.060Z,1020.11
2019-04-29T07:38:41.122Z,1020.13
2019-04-29T07:39:33.395Z,1020.09
2019-04-29T07:40:31.827Z,1020.11
2019-04-29T07:41:31.814Z,1020.08
2019-04-29T07:42:33.220Z,1020.09
2019-04-29T07:43:31.798Z,1020.09
2019-04-29T07:44:43.393Z,1020.09
2019-04-29T07:45:43.667Z,1020.07
2019-04-29T07:46:36.390Z,1020.08
2019-04-29T07:47:31.782Z,1020.07
2019-04-29T07:48:31.797Z,1020.06
2019-04-29T07:49:31.783Z,1020.07
2019-04-29T07:50:31.783Z,1020.11
2019-04-29T07:51:34.773Z,1020.10
2019-04-29T07:52:31.771Z,1020.12
2019-04-29T07:53:40.112Z,1020.09
2019-04-29T07:54:31.755Z,1020.09
2019-04-29T07:55:32.587Z,1020.07
2019-04-29T07:56:31.742Z,1020.09
2019-04-29T07:57:31.743Z,1020.07
2019-04-29T07:58:31.767Z,1020.05
2019-04-29T07:59:33.756Z,1020.03
2019-04-29T08:00:31.729Z,1020.02
2019-04-29T08:01:31.731Z,1020.06
2019-04-29T08:02:31.731Z,1020.04
2019-04-29T08:03:31.716Z,1020.03
2019-04-29T08:04:31.724Z,1020.02
2019-04-29T08:05:31.917Z,1020.05
2019-04-29T08:06:31.714Z,1020.02
2019-04-29T08:07:31.896Z,1020.08
2019-04-29T08:08:31.888Z,1020.06
2019-04-29T08:09:31.685Z,1020.02
2019-04-29T08:10:31.881Z,1020.04
2019-04-29T08:11:31.893Z,1020.04
2019-04-29T08:12:31.681Z,1020.03
2019-04-29T08:13:31.664Z,1020.02
2019-04-29T08:14:31.671Z,1020.02
2019-04-29T08:15:32.187Z,1020.02
2019-04-29T08:16:31.659Z,1020.05
2019-04-29T08:17:31.659Z,1020.03
2019-04-29T08:18:31.644Z,1020.05
2019-04-29T08:19:31.889Z,1020.01
2019-04-29T08:20:31.648Z,1020.02
2019-04-29T08:21:31.833Z,1019.97
2019-04-29T08:22:31.623Z,1019.97
2019-04-29T08:23:33.043Z,1019.92
2019-04-29T08:24:31.617Z,1019.91
2019-04-29T08:25:31.634Z,1019.93
2019-04-29T08:26:33.597Z,1019.89
2019-04-29T08:27:39.774Z,1019.90
2019-04-29T08:28:31.595Z,1019.93
2019-04-29T08:29:35.726Z,1019.91
2019-04-29T08:30:31.586Z,1019.95
2019-04-29T08:31:31.589Z,1019.92
2019-04-29T08:32:36.107Z,1019.89
2019-04-29T08:33:31.579Z,1019.90
2019-04-29T08:34:31.579Z,1019.94
2019-04-29T08:35:32.628Z,1019.94
2019-04-29T08:36:31.574Z,1019.98
2019-04-29T08:37:31.767Z,1019.99
2019-04-29T08:38:31.572Z,1019.97
2019-04-29T08:39:31.580Z,1019.97
2019-04-29T08:40:34.165Z,1020.02
2019-04-29T08:41:31.753Z,1019.98
2019-04-29T08:42:31.551Z,1020.01
2019-04-29T08:43:31.548Z,1020.02
2019-04-29T08:44:31.530Z,1019.99
2019-04-29T08:45:34.634Z,1019.95
2019-04-29T08:46:31.723Z,1020.03
2019-04-29T08:47:31.879Z,1020.02
2019-04-29T08:48:31.511Z,1020.01
2019-04-29T08:49:31.515Z,1020.14
2019-04-29T08:50:31.498Z,1020.12
2019-04-29T08:51:31.708Z,1020.17
2019-04-29T08:52:31.696Z,1020.11
2019-04-29T08:53:31.714Z,1020.12
2019-04-29T08:54:31.704Z,1020.09
2019-04-29T08:55:36.128Z,1020.11
2019-04-29T08:56:31.481Z,1020.05
2019-04-29T08:57:36.279Z,1020.08
2019-04-29T08:58:31.480Z,1020.05
2019-04-29T08:59:31.470Z,1020.02
2019-04-29T09:00:31.467Z,1020.00
2019-04-29T09:01:34.170Z,1020.03
2019-04-29T09:02:34.860Z,1020.00
2019-04-29T09:03:40.054Z,1019.98
2019-04-29T09:04:33.342Z,1019.96
2019-04-29T09:05:31.443Z,1019.96
2019-04-29T09:06:32.554Z,1019.98
2019-04-29T09:07:31.445Z,1019.94
2019-04-29T09:08:33.020Z,1019.96
2019-04-29T09:09:31.431Z,1019.88
2019-04-29T09:10:35.109Z,1019.93
2019-04-29T09:11:31.442Z,1019.89
2019-04-29T09:12:31.417Z,1019.90
2019-04-29T09:13:31.412Z,1019.87
2019-04-29T09:14:31.404Z,1019.85
2019-04-29T09:15:31.603Z,1019.85
2019-04-29T09:16:31.402Z,1019.81
2019-04-29T09:17:31.397Z,1019.81
2019-04-29T09:18:31.405Z,1019.80
2019-04-29T09:19:31.420Z,1019.78
2019-04-29T09:20:31.386Z,1019.78
2019-04-29T09:21:31.395Z,1019.79
2019-04-29T09:22:31.394Z,1019.76
2019-04-29T09:23:31.371Z,1019.78
2019-04-29T09:24:31.370Z,1019.77
2019-04-29T09:25:31.377Z,1019.78
2019-04-29T09:26:31.377Z,1019.77
2019-04-29T09:27:31.356Z,1019.71
2019-04-29T09:28:31.345Z,1019.72
2019-04-29T09:29:31.365Z,1019.73
2019-04-29T09:30:31.344Z,1019.73
2019-04-29T09:31:31.361Z,1019.69
2019-04-29T09:32:33.926Z,1019.68
2019-04-29T09:33:31.328Z,1019.65
2019-04-29T09:34:31.347Z,1019.65
2019-04-29T09:35:33.703Z,1019.63
2019-04-29T09:36:31.319Z,1019.64
2019-04-29T09:37:31.309Z,1019.62
2019-04-29T09:38:32.556Z,1019.61
2019-04-29T09:39:42.506Z,1019.59
2019-04-29T09:40:31.314Z,1019.59
2019-04-29T09:41:35.012Z,1019.59
2019-04-29T09:42:31.306Z,1019.62
2019-04-29T09:43:32.942Z,1019.54
2019-04-29T09:44:31.281Z,1019.55
2019-04-29T09:45:31.282Z,1019.55
2019-04-29T09:46:34.519Z,1019.58
2019-04-29T09:47:31.279Z,1019.54
2019-04-29T09:48:31.272Z,1019.55
2019-04-29T09:49:31.266Z,1019.54
2019-04-29T09:50:34.165Z,1019.54
2019-04-29T09:51:31.258Z,1019.56
2019-04-29T09:52:31.252Z,1019.55
2019-04-29T09:53:31.252Z,1019.53
2019-04-29T09:54:31.240Z,1019.55
2019-04-29T09:55:31.239Z,1019.46
2019-04-29T09:56:34.419Z,1019.44
2019-04-29T09:57:31.242Z,1019.47
2019-04-29T09:58:31.228Z,1019.44
2019-04-29T09:59:31.222Z,1019.46
2019-04-29T10:00:31.216Z,1019.48
2019-04-29T10:01:31.228Z,1019.48
2019-04-29T10:02:33.115Z,1019.47
2019-04-29T10:03:31.219Z,1019.50
2019-04-29T10:04:31.219Z,1019.47
2019-04-29T10:05:31.213Z,1019.46
2019-04-29T10:06:31.190Z,1019.46
2019-04-29T10:07:31.184Z,1019.43
2019-04-29T10:08:31.183Z,1019.49
2019-04-29T10:09:31.196Z,1019.45
2019-04-29T10:10:31.185Z,1019.42
2019-04-29T10:11:31.176Z,1019.45
2019-04-29T10:12:31.167Z,1019.42
2019-04-29T10:13:31.178Z,1019.41
2019-04-29T10:14:31.181Z,1019.46
2019-04-29T10:15:31.158Z,1019.45
2019-04-29T10:16:31.704Z,1019.43
2019-04-29T10:17:31.157Z,1019.40
2019-04-29T10:18:31.470Z,1019.40
2019-04-29T10:19:31.137Z,1019.43
2019-04-29T10:20:31.141Z,1019.43
2019-04-29T10:21:31.132Z,1019.39
2019-04-29T10:22:31.133Z,1019.38
2019-04-29T10:23:31.140Z,1019.33
2019-04-29T10:24:31.152Z,1019.35
2019-04-29T10:25:31.126Z,1019.34
2019-04-29T10:26:31.110Z,1019.27
2019-04-29T10:27:31.112Z,1019.30
2019-04-29T10:28:31.109Z,1019.29
2019-04-29T10:29:31.107Z,1019.26
2019-04-29T10:30:32.400Z,1019.23
2019-04-29T10:31:31.108Z,1019.22
2019-04-29T10:32:31.091Z,1019.26
2019-04-29T10:33:31.114Z,1019.27
2019-04-29T10:34:31.913Z,1019.24
2019-04-29T10:35:31.084Z,1019.24
2019-04-29T10:36:31.278Z,1019.23
2019-04-29T10:37:32.394Z,1019.24
2019-04-29T10:38:31.282Z,1019.26
2019-04-29T10:39:31.068Z,1019.20
2019-04-29T10:40:31.057Z,1019.19
2019-04-29T10:41:31.258Z,1019.22
2019-04-29T10:42:31.058Z,1019.23
2019-04-29T10:43:31.248Z,1019.18
2019-04-29T10:44:31.050Z,1019.19
2019-04-29T10:45:31.036Z,1019.16
2019-04-29T10:46:31.031Z,1019.13
2019-04-29T10:47:31.034Z,1019.11
2019-04-29T10:48:31.030Z,1019.12
2019-04-29T10:49:34.719Z,1019.12
2019-04-29T10:50:31.020Z,1019.10
2019-04-29T10:51:31.018Z,1019.11
2019-04-29T10:52:34.579Z,1019.10
2019-04-29T10:53:31.011Z,1019.10
2019-04-29T10:54:31.006Z,1019.09
2019-04-29T10:55:31.769Z,1019.07
2019-04-29T10:56:31.000Z,1019.04
2019-04-29T10:57:30.986Z,1019.04
2019-04-29T10:58:35.484Z,1019.04
2019-04-29T10:59:36.137Z,1019.02
2019-04-29T11:00:30.977Z,1019.02
2019-04-29T11:01:30.995Z,1019.05
2019-04-29T11:02:31.179Z,1019.07
2019-04-29T11:03:31.174Z,1019.03
2019-04-29T11:04:31.616Z,1019.00
2019-04-29T11:05:30.967Z,1019.06
2019-04-29T11:06:31.317Z,1019.03
2019-04-29T11:07:31.158Z,1019.03
2019-04-29T11:08:33.779Z,1019.03
2019-04-29T11:09:30.944Z,1019.00
2019-04-29T11:10:30.944Z,1018.99
2019-04-29T11:11:30.940Z,1018.99
2019-04-29T11:12:30.948Z,1018.95
2019-04-29T11:13:31.151Z,1018.99
2019-04-29T11:14:33.067Z,1019.05
2019-04-29T11:15:32.686Z,1018.95
2019-04-29T11:16:46.122Z,1018.97
2019-04-29T11:17:31.132Z,1019.00
2019-04-29T11:18:30.914Z,1018.98
2019-04-29T11:19:30.906Z,1019.02
2019-04-29T11:20:30.901Z,1019.00
2019-04-29T11:21:31.387Z,1018.96
2019-04-29T11:22:33.955Z,1018.95
2019-04-29T11:23:30.900Z,1019.01
2019-04-29T11:24:32.510Z,1018.93
2019-04-29T11:25:30.887Z,1018.95
2019-04-29T11:26:30.882Z,1018.93
2019-04-29T11:27:30.881Z,1018.91
2019-04-29T11:28:30.897Z,1018.93
2019-04-29T11:29:30.870Z,1018.93
2019-04-29T11:30:34.783Z,1018.94
2019-04-29T11:31:31.064Z,1018.91
2019-04-29T11:32:30.861Z,1018.88
2019-04-29T11:33:30.879Z,1018.84
2019-04-29T11:34:33.229Z,1018.90
2019-04-29T11:35:30.847Z,1018.84
2019-04-29T11:36:30.865Z,1018.85
2019-04-29T11:37:30.838Z,1018.86
2019-04-29T11:38:33.403Z,1018.82
2019-04-29T11:39:30.850Z,1018.81
2019-04-29T11:40:43.173Z,1018.77
2019-04-29T11:41:31.053Z,1018.76
2019-04-29T11:42:31.911Z,1018.80
2019-04-29T11:43:30.823Z,1018.74
2019-04-29T11:44:31.984Z,1018.80
2019-04-29T11:45:33.625Z,1018.84
2019-04-29T11:46:31.019Z,1018.81
2019-04-29T11:47:30.821Z,1018.80
2019-04-29T11:48:30.806Z,1018.84
2019-04-29T11:49:30.797Z,1018.85
2019-04-29T11:50:30.790Z,1018.82
2019-04-29T11:51:34.074Z,1018.85
2019-04-29T11:52:30.794Z,1018.83
2019-04-29T11:53:30.782Z,1018.82
2019-04-29T11:54:30.789Z,1018.77
2019-04-29T11:55:30.772Z,1018.78
2019-04-29T11:56:30.989Z,1018.79
2019-04-29T11:57:40.689Z,1018.78
2019-04-29T11:58:30.770Z,1018.76
2019-04-29T11:59:30.830Z,1018.74
2019-04-29T12:00:30.757Z,1018.70
2019-04-29T12:01:38.447Z,1018.71
2019-04-29T12:02:44.512Z,1018.71
2019-04-29T12:03:30.752Z,1018.69
2019-04-29T12:04:33.721Z,1018.65
2019-04-29T12:05:30.751Z,1018.68